Time;durP1;ratioP1;P1;durP2;ratioP2;P2;SDS_P1;SDS_P2;PMS_P1;PMS_P2;Temp;Humidity;BMP_temperature;BMP_pressure;BME280_temperature;BME280_humidity;BME280_pressure;Samples;Min_cycle;Max_cycle;Signal;HPM_P1;HPM_P2
2022/03/20 00:00:36;;;;;;;14.93;6.33;;;;;;;;;;5041352;28;20119;-68
2022/03/20 00:03:06;;;;;;;13.77;6.40;;;;;;;;;;5061763;28;20063;-68
2022/03/20 00:05:31;;;;;;;14.07;6.70;;;;;;;;;;5058333;28;20094;-68
2022/03/20 00:07:58;;;;;;;8.90;4.73;;;;;;;;;;5059559;28;20638;-68
2022/03/20 00:10:23;;;;;;;12.73;6.10;;;;;;;;;;5060614;28;20134;-68
2022/03/20 00:12:53;;;;;;;16.10;7.80;;;;;;;;;;5059701;28;20520;-68
2022/03/20 00:15:18;;;;;;;17.53;8.20;;;;;;;;;;5060212;28;20043;-68
2022/03/20 00:17:43;;;;;;;12.37;5.87;;;;;;;;;;5059541;28;20657;-68
2022/03/20 00:20:09;;;;;;;21.37;8.20;;;;;;;;;;5062935;28;20059;-69
2022/03/20 00:22:36;;;;;;;14.17;6.47;;;;;;;;;;5060875;28;20032;-68
2022/03/20 00:25:02;;;;;;;13.77;7.03;;;;;;;;;;5059529;28;20036;-68
2022/03/20 00:27:27;;;;;;;17.33;8.40;;;;;;;;;;5059748;28;20020;-68
2022/03/20 00:29:54;;;;;;;13.67;7.43;;;;;;;;;;5059533;28;20485;-68
2022/03/20 00:32:20;;;;;;;17.03;8.83;;;;;;;;;;5058883;28;20112;-68
2022/03/20 00:34:45;;;;;;;16.63;7.13;;;;;;;;;;5060625;28;20113;-68
2022/03/20 00:37:10;;;;;;;18.60;7.90;;;;;;;;;;5059988;28;20090;-69
2022/03/20 00:39:36;;;;;;;14.40;7.70;;;;;;;;;;5058502;28;20028;-68
2022/03/20 00:42:01;;;;;;;18.13;7.27;;;;;;;;;;5060624;28;20030;-68
2022/03/20 00:44:26;;;;;;;15.30;7.10;;;;;;;;;;5059203;28;20035;-68
2022/03/20 00:46:51;;;;;;;23.40;8.53;;;;;;;;;;5059118;28;20024;-68
2022/03/20 00:49:17;;;;;;;20.17;8.07;;;;;;;;;;5058670;28;20515;-71
2022/03/20 00:51:42;;;;;;;17.33;9.00;;;;;;;;;;5059396;28;20467;-68
2022/03/20 00:54:08;;;;;;;16.03;7.63;;;;;;;;;;5062397;28;20056;-68
2022/03/20 00:56:33;;;;;;;12.80;5.43;;;;;;;;;;5064283;28;20099;-68
2022/03/20 00:58:58;;;;;;;19.70;7.50;;;;;;;;;;5063255;28;20067;-68
2022/03/20 01:01:24;;;;;;;16.40;8.13;;;;;;;;;;5059256;28;20432;-68
2022/03/20 01:03:51;;;;;;;16.83;9.30;;;;;;;;;;5063021;28;20032;-68
2022/03/20 01:06:17;;;;;;;14.13;6.67;;;;;;;;;;5062994;28;20013;-68
2022/03/20 01:08:43;;;;;;;24.93;9.23;;;;;;;;;;5063491;28;20032;-68
2022/03/20 01:11:09;;;;;;;14.73;7.47;;;;;;;;;;5062792;28;20564;-69
2022/03/20 01:13:35;;;;;;;23.03;9.70;;;;;;;;;;5060934;28;20111;-68
2022/03/20 01:16:00;;;;;;;17.83;9.30;;;;;;;;;;5063357;28;20024;-68
2022/03/20 01:18:25;;;;;;;24.50;10.00;;;;;;;;;;5062859;28;20396;-68
2022/03/20 01:20:51;;;;;;;22.20;10.70;;;;;;;;;;5063435;28;20703;-68
2022/03/20 01:23:17;;;;;;;17.03;8.13;;;;;;;;;;5062703;28;20597;-68
2022/03/20 01:25:42;;;;;;;22.27;11.87;;;;;;;;;;5062599;28;20035;-68
2022/03/20 01:28:08;;;;;;;24.57;11.17;;;;;;;;;;5063156;28;20134;-68
2022/03/20 01:30:33;;;;;;;21.40;9.87;;;;;;;;;;5062251;28;20024;-68
2022/03/20 01:32:59;;;;;;;23.03;11.17;;;;;;;;;;5063595;28;20032;-68
2022/03/20 01:35:24;;;;;;;24.63;12.47;;;;;;;;;;5074822;28;22143;-68
2022/03/20 01:37:50;;;;;;;15.30;7.07;;;;;;;;;;5062960;28;20739;-68
2022/03/20 01:40:16;;;;;;;24.20;8.73;;;;;;;;;;5062955;28;20063;-68
2022/03/20 01:42:41;;;;;;;21.33;10.37;;;;;;;;;;5062283;28;20518;-68
2022/03/20 01:45:13;;;;;;;23.70;11.33;;;;;;;;;;5062577;28;20447;-68
2022/03/20 01:47:39;;;;;;;18.13;8.00;;;;;;;;;;5062333;28;20013;-68
2022/03/20 01:50:04;;;;;;;21.60;10.43;;;;;;;;;;5062386;28;20098;-68
2022/03/20 01:52:29;;;;;;;21.73;10.47;;;;;;;;;;5060873;28;20056;-68
2022/03/20 01:54:55;;;;;;;26.80;11.13;;;;;;;;;;5057920;28;20031;-68
2022/03/20 01:57:21;;;;;;;20.33;9.50;;;;;;;;;;5057469;28;20090;-68
2022/03/20 01:59:46;;;;;;;23.50;10.40;;;;;;;;;;5057181;28;20031;-68
2022/03/20 02:02:12;;;;;;;23.87;11.17;;;;;;;;;;5056068;28;20158;-68
2022/03/20 02:04:38;;;;;;;15.70;8.53;;;;;;;;;;5057876;28;20059;-68
2022/03/20 02:07:04;;;;;;;28.20;12.50;;;;;;;;;;5057347;28;20071;-68
2022/03/20 02:09:29;;;;;;;22.13;10.80;;;;;;;;;;5056824;28;20452;-68
2022/03/20 02:11:55;;;;;;;19.73;9.37;;;;;;;;;;5057601;28;20028;-68
2022/03/20 02:14:20;;;;;;;25.47;11.90;;;;;;;;;;5059416;28;20036;-68
2022/03/20 02:16:46;;;;;;;15.30;8.03;;;;;;;;;;5060363;28;20090;-68
2022/03/20 02:19:13;;;;;;;22.13;10.87;;;;;;;;;;5062279;28;20024;-68
2022/03/20 02:21:42;;;;;;;22.70;11.30;;;;;;;;;;5061120;28;20064;-68
2022/03/20 02:24:26;;;;;;;20.40;10.27;;;;;;;;;;5061934;28;20115;-68
2022/03/20 02:27:00;;;;;;;19.53;10.23;;;;;;;;;;5061475;28;20028;-68
2022/03/20 02:29:26;;;;;;;20.43;9.13;;;;;;;;;;5061574;28;20109;-68
2022/03/20 02:31:51;;;;;;;20.90;9.87;;;;;;;;;;5061577;28;20028;-68
2022/03/20 02:34:16;;;;;;;24.40;10.60;;;;;;;;;;5074380;28;20503;-68
2022/03/20 02:36:42;;;;;;;23.70;11.13;;;;;;;;;;5060947;28;20024;-68
2022/03/20 02:39:07;;;;;;;20.43;10.30;;;;;;;;;;5061134;28;20040;-68
2022/03/20 02:41:32;;;;;;;16.37;7.93;;;;;;;;;;5061447;28;20035;-68
2022/03/20 02:44:02;;;;;;;22.20;9.90;;;;;;;;;;5061059;28;20032;-68
2022/03/20 02:46:27;;;;;;;25.23;12.33;;;;;;;;;;5054893;28;20021;-68
2022/03/20 02:48:53;;;;;;;18.30;8.43;;;;;;;;;;5061121;28;20030;-68
2022/03/20 02:51:18;;;;;;;21.37;11.10;;;;;;;;;;5061431;28;20032;-68
2022/03/20 02:53:43;;;;;;;18.30;7.30;;;;;;;;;;5064769;28;20016;-68
2022/03/20 02:56:10;;;;;;;23.77;14.63;;;;;;;;;;5060756;28;20033;-68
2022/03/20 02:58:36;;;;;;;15.30;7.23;;;;;;;;;;5066407;28;20024;-68
2022/03/20 03:01:01;;;;;;;23.87;12.83;;;;;;;;;;5061024;28;20063;-68
2022/03/20 03:03:26;;;;;;;22.40;10.90;;;;;;;;;;5060922;28;20025;-68
2022/03/20 03:05:56;;;;;;;24.77;9.60;;;;;;;;;;5060903;28;20027;-68
2022/03/20 03:11:05;;;;;;;25.03;13.37;;;;;;;;;;5061089;28;20043;-68
2022/03/20 03:13:40;;;;;;;24.80;10.17;;;;;;;;;;5060837;28;20104;-68
2022/03/20 03:16:10;;;;;;;17.90;9.20;;;;;;;;;;5060376;28;20052;-68
2022/03/20 03:18:36;;;;;;;20.30;9.07;;;;;;;;;;5060926;28;20589;-68
2022/03/20 03:21:02;;;;;;;19.70;9.87;;;;;;;;;;5059795;28;20524;-68
2022/03/20 03:23:28;;;;;;;20.47;9.53;;;;;;;;;;5060728;28;20111;-68
2022/03/20 03:25:54;;;;;;;22.83;11.43;;;;;;;;;;5060442;28;20036;-68
2022/03/20 03:28:19;;;;;;;24.37;11.43;;;;;;;;;;5059946;28;20017;-68
2022/03/20 03:30:46;;;;;;;20.57;10.53;;;;;;;;;;5060625;28;20028;-68
2022/03/20 03:33:12;;;;;;;23.10;11.80;;;;;;;;;;5060463;28;20024;-68
2022/03/20 03:35:41;;;;;;;21.80;10.83;;;;;;;;;;5060132;28;20021;-69
2022/03/20 03:38:07;;;;;;;20.67;9.13;;;;;;;;;;5060445;28;20033;-69
2022/03/20 03:40:33;;;;;;;19.93;10.17;;;;;;;;;;5060549;28;20103;-69
2022/03/20 03:42:58;;;;;;;26.80;15.00;;;;;;;;;;5063788;28;20579;-69
2022/03/20 03:45:24;;;;;;;15.93;7.90;;;;;;;;;;5067640;28;20353;-69
2022/03/20 03:47:50;;;;;;;17.83;8.20;;;;;;;;;;5060467;28;20025;-69
2022/03/20 03:50:15;;;;;;;23.10;11.20;;;;;;;;;;5060704;28;20145;-69
2022/03/20 03:52:40;;;;;;;18.20;9.63;;;;;;;;;;5060841;28;20025;-69
2022/03/20 03:55:06;;;;;;;19.37;10.70;;;;;;;;;;5059698;28;20021;-69
2022/03/20 03:57:31;;;;;;;22.17;10.43;;;;;;;;;;5060367;28;20585;-69
2022/03/20 03:59:57;;;;;;;24.87;13.67;;;;;;;;;;5061013;28;20043;-67
2022/03/20 04:02:23;;;;;;;19.37;10.80;;;;;;;;;;5059976;28;20049;-67
2022/03/20 04:04:48;;;;;;;19.53;10.27;;;;;;;;;;5059668;28;20123;-67
2022/03/20 04:07:17;;;;;;;19.07;8.33;;;;;;;;;;5060323;28;20028;-67
2022/03/20 04:09:42;;;;;;;26.90;12.27;;;;;;;;;;5059836;28;20116;-67
2022/03/20 04:12:07;;;;;;;23.07;11.70;;;;;;;;;;5060897;28;20115;-67
2022/03/20 04:14:33;;;;;;;29.60;11.97;;;;;;;;;;5059973;28;20039;-67
2022/03/20 04:16:59;;;;;;;26.47;13.03;;;;;;;;;;5055026;28;20039;-67
2022/03/20 04:19:24;;;;;;;21.77;10.70;;;;;;;;;;5060403;28;20033;-67
2022/03/20 04:21:49;;;;;;;26.40;12.90;;;;;;;;;;5059958;28;20040;-67
2022/03/20 04:24:15;;;;;;;23.27;12.83;;;;;;;;;;5059972;28;20028;-67
2022/03/20 04:26:40;;;;;;;33.70;16.37;;;;;;;;;;5062962;28;20020;-67
2022/03/20 04:29:05;;;;;;;26.87;14.67;;;;;;;;;;5068622;28;20021;-67
2022/03/20 04:31:31;;;;;;;27.00;12.50;;;;;;;;;;5060115;28;20020;-67
2022/03/20 04:33:56;;;;;;;26.33;11.53;;;;;;;;;;5059405;28;20039;-67
2022/03/20 04:36:23;;;;;;;23.70;12.83;;;;;;;;;;5060411;28;20104;-67
2022/03/20 04:38:50;;;;;;;21.77;9.20;;;;;;;;;;5060135;28;20024;-67
2022/03/20 04:41:17;;;;;;;31.20;13.30;;;;;;;;;;5062790;28;20070;-67
2022/03/20 04:43:42;;;;;;;26.20;9.97;;;;;;;;;;5063609;28;20024;-67
2022/03/20 04:46:08;;;;;;;27.70;10.70;;;;;;;;;;5063251;28;20031;-67
2022/03/20 04:59:29;;;;;;;34.37;17.03;;;;;;;;;;5063935;28;20106;-67
2022/03/20 05:01:54;;;;;;;26.87;12.80;;;;;;;;;;5063038;28;20064;-67
2022/03/20 05:04:19;;;;;;;23.43;10.37;;;;;;;;;;5062114;28;20078;-67
2022/03/20 05:06:45;;;;;;;17.53;9.13;;;;;;;;;;5063322;28;20032;-67
2022/03/20 05:14:38;;;;;;;26.03;12.47;;;;;;;;;;5062406;28;20078;-67
2022/03/20 05:17:07;;;;;;;28.53;15.67;;;;;;;;;;5062356;28;20040;-67
2022/03/20 05:19:33;;;;;;;19.63;11.13;;;;;;;;;;5063202;28;20028;-67
2022/03/20 05:21:58;;;;;;;21.33;11.60;;;;;;;;;;5062904;28;20178;-67
2022/03/20 05:24:24;;;;;;;27.07;13.80;;;;;;;;;;5062937;28;20507;-67
2022/03/20 05:26:49;;;;;;;25.77;12.47;;;;;;;;;;5062766;28;20445;-67
2022/03/20 05:29:15;;;;;;;27.60;14.00;;;;;;;;;;5063166;28;20508;-67
2022/03/20 05:31:40;;;;;;;27.73;14.63;;;;;;;;;;5062886;28;20028;-67
2022/03/20 05:34:06;;;;;;;24.20;12.77;;;;;;;;;;5062106;28;20039;-67
2022/03/20 05:36:31;;;;;;;24.77;11.87;;;;;;;;;;5063107;28;20020;-67
2022/03/20 05:38:56;;;;;;;22.87;11.40;;;;;;;;;;5062601;28;20028;-67
2022/03/20 05:44:05;;;;;;;22.83;10.40;;;;;;;;;;5054373;28;20031;-69
2022/03/20 05:46:30;;;;;;;23.23;10.40;;;;;;;;;;5052476;28;20028;-67
2022/03/20 05:48:56;;;;;;;25.00;10.77;;;;;;;;;;5070228;28;20027;-67
2022/03/20 05:51:21;;;;;;;21.93;10.33;;;;;;;;;;5062361;28;20020;-67
2022/03/20 05:53:46;;;;;;;26.40;11.70;;;;;;;;;;5062495;28;20484;-67
2022/03/20 05:58:57;;;;;;;25.53;12.90;;;;;;;;;;5063365;28;20081;-67
2022/03/20 06:01:23;;;;;;;27.00;13.07;;;;;;;;;;5067808;28;20135;-67
2022/03/20 06:03:49;;;;;;;24.60;11.00;;;;;;;;;;5067567;28;20463;-68
2022/03/20 06:06:14;;;;;;;24.27;12.47;;;;;;;;;;5062390;28;20024;-68
2022/03/20 06:08:40;;;;;;;22.73;11.47;;;;;;;;;;5062620;28;20392;-68
2022/03/20 06:11:06;;;;;;;25.57;12.20;;;;;;;;;;5064055;28;20079;-68
2022/03/20 06:13:32;;;;;;;22.93;10.90;;;;;;;;;;5062897;28;20396;-68
2022/03/20 06:15:57;;;;;;;25.90;11.67;;;;;;;;;;5062224;28;20044;-68
2022/03/20 06:18:26;;;;;;;27.07;11.93;;;;;;;;;;5065256;28;20086;-68
2022/03/20 06:20:51;;;;;;;31.57;10.70;;;;;;;;;;5062175;28;20032;-68
2022/03/20 06:23:16;;;;;;;27.63;12.30;;;;;;;;;;5063795;28;20028;-70
2022/03/20 06:25:42;;;;;;;29.97;12.80;;;;;;;;;;5062621;28;20630;-71
2022/03/20 06:28:07;;;;;;;36.30;13.00;;;;;;;;;;5062098;28;20043;-69
2022/03/20 06:30:33;;;;;;;27.07;12.93;;;;;;;;;;5061696;28;20036;-69
2022/03/20 06:32:58;;;;;;;28.60;15.20;;;;;;;;;;5062175;28;20031;-69
2022/03/20 06:35:24;;;;;;;25.03;10.93;;;;;;;;;;5061479;28;20041;-69
2022/03/20 06:37:55;;;;;;;23.17;11.30;;;;;;;;;;5062578;28;20170;-68
2022/03/20 06:40:21;;;;;;;17.92;9.10;;;;;;;;;;5059614;28;20036;-68
2022/03/20 06:42:46;;;;;;;20.80;10.40;;;;;;;;;;5061315;28;20035;-68
2022/03/20 06:45:13;;;;;;;24.63;11.90;;;;;;;;;;5061753;28;20012;-70
2022/03/20 06:47:39;;;;;;;20.97;8.97;;;;;;;;;;5061508;28;20020;-69
2022/03/20 06:50:05;;;;;;;20.43;10.37;;;;;;;;;;5061934;28;20024;-69
2022/03/20 06:52:31;;;;;;;28.40;14.27;;;;;;;;;;5062088;28;20029;-68
2022/03/20 06:55:06;;;;;;;21.10;10.23;;;;;;;;;;5062001;28;20491;-70
2022/03/20 06:57:32;;;;;;;22.70;11.67;;;;;;;;;;5056929;28;20416;-69
2022/03/20 06:59:59;;;;;;;24.07;11.80;;;;;;;;;;5062011;28;20469;-68
2022/03/20 07:02:25;;;;;;;23.73;11.23;;;;;;;;;;5061321;28;20436;-68
2022/03/20 07:04:53;;;;;;;26.40;12.57;;;;;;;;;;5060866;28;20024;-69
2022/03/20 07:07:22;;;;;;;25.10;11.93;;;;;;;;;;5061318;28;20040;-69
2022/03/20 07:09:48;;;;;;;30.50;13.27;;;;;;;;;;5060311;28;20086;-69
2022/03/20 07:12:13;;;;;;;27.50;11.57;;;;;;;;;;5061174;28;20028;-69
2022/03/20 07:14:39;;;;;;;27.80;12.57;;;;;;;;;;5061132;28;20492;-69
2022/03/20 07:17:07;;;;;;;23.27;11.10;;;;;;;;;;5061522;28;20039;-69
2022/03/20 07:19:32;;;;;;;21.60;9.83;;;;;;;;;;5060797;28;20044;-69
2022/03/20 07:21:57;;;;;;;20.23;11.07;;;;;;;;;;5061241;28;20051;-69
2022/03/20 07:24:23;;;;;;;18.97;9.27;;;;;;;;;;5061228;28;20021;-69
2022/03/20 07:29:32;;;;;;;17.27;8.10;;;;;;;;;;5060614;28;20115;-69
2022/03/20 07:32:03;;;;;;;22.07;11.47;;;;;;;;;;5061458;28;20112;-69
2022/03/20 07:34:28;;;;;;;20.17;9.03;;;;;;;;;;5060517;28;20021;-69
2022/03/20 07:36:53;;;;;;;25.30;13.00;;;;;;;;;;5061298;28;20027;-69
2022/03/20 07:39:19;;;;;;;28.30;13.27;;;;;;;;;;5060936;28;20017;-69
2022/03/20 07:41:44;;;;;;;23.30;10.50;;;;;;;;;;5060500;28;20121;-69
2022/03/20 07:44:10;;;;;;;22.70;10.77;;;;;;;;;;5059809;28;20027;-69
2022/03/20 07:46:40;;;;;;;22.77;10.13;;;;;;;;;;5061227;28;20122;-69
2022/03/20 07:49:07;;;;;;;20.40;10.10;;;;;;;;;;5060693;28;20070;-69
2022/03/20 07:51:32;;;;;;;24.00;11.77;;;;;;;;;;5061087;28;20446;-69
2022/03/20 07:53:57;;;;;;;25.60;12.20;;;;;;;;;;5060516;28;20024;-69
2022/03/20 07:56:23;;;;;;;21.40;10.57;;;;;;;;;;5068125;28;20031;-69
2022/03/20 07:58:49;;;;;;;23.03;10.87;;;;;;;;;;5076306;28;20234;-69
2022/03/20 08:01:14;;;;;;;27.40;12.33;;;;;;;;;;5059591;28;20056;-69
2022/03/20 08:03:42;;;;;;;22.50;11.40;;;;;;;;;;5060134;28;20024;-69
2022/03/20 08:06:08;;;;;;;25.53;11.93;;;;;;;;;;5060303;28;20028;-69
2022/03/20 08:08:43;;;;;;;24.90;12.30;;;;;;;;;;5060361;28;20032;-69
2022/03/20 08:11:08;;;;;;;22.43;11.40;;;;;;;;;;5073836;28;20020;-69
2022/03/20 08:13:34;;;;;;;25.43;12.40;;;;;;;;;;5060389;28;20043;-69
2022/03/20 08:16:00;;;;;;;25.87;12.73;;;;;;;;;;5063697;28;20106;-70
2022/03/20 08:18:25;;;;;;;23.80;12.80;;;;;;;;;;5064816;28;20033;-69
2022/03/20 08:20:51;;;;;;;27.80;11.50;;;;;;;;;;5070393;28;20094;-69
2022/03/20 08:23:16;;;;;;;23.13;11.47;;;;;;;;;;5065181;28;20026;-69
2022/03/20 08:25:42;;;;;;;26.73;13.20;;;;;;;;;;5064543;28;20115;-69
2022/03/20 08:28:09;;;;;;;29.23;13.23;;;;;;;;;;5064153;28;20035;-68
2022/03/20 08:30:36;;;;;;;20.23;10.87;;;;;;;;;;5064846;28;20743;-70
2022/03/20 08:33:01;;;;;;;27.30;13.77;;;;;;;;;;5063694;28;20029;-69
2022/03/20 08:35:26;;;;;;;22.80;11.10;;;;;;;;;;5064260;28;20040;-69
2022/03/20 08:37:55;;;;;;;27.20;13.03;;;;;;;;;;5063208;28;20051;-68
2022/03/20 08:40:21;;;;;;;21.77;11.13;;;;;;;;;;5063875;28;20154;-68
2022/03/20 08:42:54;;;;;;;27.53;14.37;;;;;;;;;;5059670;28;20073;-69
2022/03/20 08:45:20;;;;;;;20.97;11.33;;;;;;;;;;5063756;28;20501;-69
2022/03/20 08:47:46;;;;;;;24.60;13.40;;;;;;;;;;5063908;28;20020;-68
2022/03/20 08:50:13;;;;;;;29.13;13.00;;;;;;;;;;5064083;28;20036;-69
2022/03/20 08:52:38;;;;;;;27.23;13.70;;;;;;;;;;5063546;28;20043;-69
2022/03/20 08:55:09;;;;;;;27.87;13.87;;;;;;;;;;5064183;28;20033;-69
2022/03/20 08:57:36;;;;;;;23.08;11.32;;;;;;;;;;5067554;28;20029;-69
2022/03/20 09:00:02;;;;;;;27.63;13.10;;;;;;;;;;5064008;28;20036;-68
2022/03/20 09:02:27;;;;;;;27.10;12.57;;;;;;;;;;5062422;28;20050;-68
2022/03/20 09:04:52;;;;;;;22.67;11.60;;;;;;;;;;5063106;28;20469;-69
2022/03/20 09:07:17;;;;;;;27.10;11.80;;;;;;;;;;5062856;28;20103;-69
2022/03/20 09:09:43;;;;;;;23.73;12.13;;;;;;;;;;5060508;28;20056;-69
2022/03/20 09:12:11;;;;;;;27.70;12.60;;;;;;;;;;5060575;28;20032;-68
2022/03/20 09:14:36;;;;;;;24.37;12.37;;;;;;;;;;5060212;28;20067;-69
2022/03/20 09:19:45;;;;;;;26.67;11.00;;;;;;;;;;5060810;28;20632;-69
2022/03/20 09:22:12;;;;;;;30.13;12.40;;;;;;;;;;5061043;28;20060;-68
2022/03/20 09:24:38;;;;;;;31.50;14.60;;;;;;;;;;5061039;28;20020;-68
2022/03/20 09:27:03;;;;;;;32.63;14.33;;;;;;;;;;5059318;28;20040;-68
2022/03/20 09:29:28;;;;;;;29.20;14.67;;;;;;;;;;5060458;28;20037;-68
2022/03/20 09:31:53;;;;;;;24.03;11.40;;;;;;;;;;5060658;28;20028;-68
2022/03/20 09:34:19;;;;;;;25.90;14.03;;;;;;;;;;5059323;28;20504;-68
2022/03/20 09:36:44;;;;;;;22.97;11.87;;;;;;;;;;5060155;28;20043;-68
2022/03/20 09:39:10;;;;;;;29.03;12.13;;;;;;;;;;5061053;28;20041;-68
2022/03/20 09:41:38;;;;;;;24.33;12.67;;;;;;;;;;5060207;28;20103;-68
2022/03/20 09:44:04;;;;;;;21.53;11.30;;;;;;;;;;5060552;28;20428;-68
2022/03/20 09:46:30;;;;;;;22.83;12.17;;;;;;;;;;5059754;28;20028;-68
2022/03/20 09:48:56;;;;;;;22.50;12.17;;;;;;;;;;5060686;28;20031;-68
2022/03/20 09:51:21;;;;;;;29.33;14.43;;;;;;;;;;5058966;28;20028;-68
2022/03/20 09:53:47;;;;;;;24.20;12.37;;;;;;;;;;5080591;28;20453;-68
2022/03/20 09:56:12;;;;;;;23.57;12.03;;;;;;;;;;5060391;28;20047;-68
2022/03/20 09:58:37;;;;;;;23.23;12.40;;;;;;;;;;5066717;28;20527;-68
2022/03/20 10:01:03;;;;;;;30.63;14.60;;;;;;;;;;5050164;28;20053;-68
2022/03/20 10:03:28;;;;;;;30.43;15.87;;;;;;;;;;5061278;28;20576;-68
2022/03/20 10:06:17;;;;;;;23.47;12.30;;;;;;;;;;5060616;28;20496;-68
2022/03/20 10:09:00;;;;;;;24.47;11.77;;;;;;;;;;5060171;28;20651;-69
2022/03/20 10:11:26;;;;;;;31.47;15.10;;;;;;;;;;5059743;28;20036;-69
2022/03/20 10:14:06;;;;;;;25.70;11.70;;;;;;;;;;5056849;28;20043;-68
2022/03/20 10:16:32;;;;;;;23.17;11.27;;;;;;;;;;5068168;28;20028;-69
2022/03/20 10:18:57;;;;;;;21.97;10.07;;;;;;;;;;5058394;28;20037;-69
2022/03/20 10:21:40;;;;;;;25.00;11.33;;;;;;;;;;5060297;28;20029;-69
2022/03/20 10:24:13;;;;;;;24.07;12.50;;;;;;;;;;5058832;28;20024;-69
2022/03/20 10:26:39;;;;;;;26.63;13.03;;;;;;;;;;5059794;28;20578;-69
2022/03/20 10:29:12;;;;;;;30.80;16.53;;;;;;;;;;5059725;28;20111;-69
2022/03/20 10:31:46;;;;;;;22.23;11.87;;;;;;;;;;5059350;28;20032;-69
2022/03/20 10:34:11;;;;;;;27.80;15.43;;;;;;;;;;5058968;28;20089;-69
2022/03/20 10:36:36;;;;;;;27.87;13.23;;;;;;;;;;5059394;28;20036;-69
2022/03/20 10:39:02;;;;;;;25.37;12.43;;;;;;;;;;5059272;28;20028;-69
2022/03/20 10:41:32;;;;;;;27.57;10.50;;;;;;;;;;5059953;28;20088;-69
2022/03/20 10:43:58;;;;;;;24.97;12.30;;;;;;;;;;5058309;28;20107;-69
2022/03/20 10:46:30;;;;;;;23.23;11.47;;;;;;;;;;5059072;28;20124;-69
2022/03/20 10:49:00;;;;;;;23.53;10.63;;;;;;;;;;5059112;28;20020;-69
2022/03/20 10:51:37;;;;;;;24.83;12.10;;;;;;;;;;5059432;28;20028;-69
2022/03/20 10:54:03;;;;;;;21.60;10.53;;;;;;;;;;5063383;28;20032;-69
2022/03/20 10:56:28;;;;;;;26.60;14.63;;;;;;;;;;5058868;28;20036;-69
2022/03/20 10:58:53;;;;;;;33.17;15.20;;;;;;;;;;5057711;28;20555;-69
2022/03/20 11:01:32;;;;;;;19.37;10.37;;;;;;;;;;5058281;28;20056;-69
2022/03/20 11:03:59;;;;;;;23.77;12.17;;;;;;;;;;5058001;28;20788;-69
2022/03/20 11:06:25;;;;;;;24.63;13.03;;;;;;;;;;5058311;28;20042;-69
2022/03/20 11:08:50;;;;;;;23.53;11.60;;;;;;;;;;5058506;28;20017;-69
2022/03/20 11:11:17;;;;;;;27.43;15.47;;;;;;;;;;5057692;28;20033;-69
2022/03/20 11:13:46;;;;;;;24.67;11.53;;;;;;;;;;5061498;28;20063;-69
2022/03/20 11:16:12;;;;;;;18.77;9.30;;;;;;;;;;5062951;28;20563;-69
2022/03/20 11:18:39;;;;;;;17.83;9.17;;;;;;;;;;5057440;28;20047;-69
2022/03/20 11:21:05;;;;;;;22.87;10.70;;;;;;;;;;5056104;28;20040;-69
2022/03/20 11:23:32;;;;;;;21.93;11.03;;;;;;;;;;5058761;28;20392;-69
2022/03/20 11:25:58;;;;;;;26.77;10.93;;;;;;;;;;5055341;28;20636;-69
2022/03/20 11:28:24;;;;;;;32.30;14.27;;;;;;;;;;5057862;28;20020;-69
2022/03/20 11:30:51;;;;;;;25.43;12.83;;;;;;;;;;5058470;28;20056;-69
2022/03/20 11:33:19;;;;;;;25.03;12.83;;;;;;;;;;5058643;28;20085;-69
2022/03/20 11:35:45;;;;;;;23.00;10.47;;;;;;;;;;5058044;28;20043;-69
2022/03/20 11:38:16;;;;;;;27.10;12.83;;;;;;;;;;5057929;28;20540;-69
2022/03/20 11:41:01;;;;;;;29.63;14.00;;;;;;;;;;5056875;28;20031;-69
2022/03/20 11:43:26;;;;;;;23.80;12.33;;;;;;;;;;5060523;28;20495;-69
2022/03/20 11:46:28;;;;;;;20.97;11.07;;;;;;;;;;5058497;28;20024;-69
2022/03/20 11:49:12;;;;;;;18.20;9.50;;;;;;;;;;4968346;28;20041;-69
2022/03/20 11:51:55;;;;;;;26.17;13.73;;;;;;;;;;4961199;28;20286;-69
2022/03/20 11:54:27;;;;;;;23.50;13.10;;;;;;;;;;4964126;28;20114;-69
2022/03/20 11:56:54;;;;;;;20.93;9.63;;;;;;;;;;4962756;28;20126;-69
2022/03/20 11:59:38;;;;;;;26.53;11.23;;;;;;;;;;4968225;28;20027;-69
2022/03/20 12:02:05;;;;;;;20.57;10.93;;;;;;;;;;4959747;28;20529;-69
2022/03/20 12:04:40;;;;;;;22.03;11.67;;;;;;;;;;4965667;28;20078;-69
2022/03/20 12:07:13;;;;;;;20.87;10.23;;;;;;;;;;4969255;28;20037;-69
2022/03/20 12:09:38;;;;;;;17.80;9.67;;;;;;;;;;4964472;28;20057;-69
2022/03/20 12:12:18;;;;;;;21.33;9.33;;;;;;;;;;4969197;28;20042;-69
2022/03/20 12:14:48;;;;;;;17.30;8.13;;;;;;;;;;4959470;28;20038;-69
2022/03/20 12:17:13;;;;;;;29.10;13.10;;;;;;;;;;4961164;28;20439;-69
2022/03/20 12:19:38;;;;;;;29.00;13.47;;;;;;;;;;4965035;28;20045;-69
2022/03/20 12:22:05;;;;;;;24.80;15.30;;;;;;;;;;4967862;28;20039;-69
2022/03/20 12:24:37;;;;;;;23.67;12.43;;;;;;;;;;5009666;28;20036;-69
2022/03/20 12:27:24;;;;;;;19.70;9.23;;;;;;;;;;5054960;28;20031;-69
2022/03/20 12:29:50;;;;;;;19.43;9.33;;;;;;;;;;5056599;28;20020;-69
2022/03/20 12:32:16;;;;;;;25.23;12.00;;;;;;;;;;5058592;28;20025;-69
2022/03/20 12:34:42;;;;;;;23.27;12.87;;;;;;;;;;5057970;28;20419;-69
2022/03/20 12:37:26;;;;;;;23.17;10.53;;;;;;;;;;5058034;28;20024;-70
2022/03/20 12:39:55;;;;;;;19.33;10.20;;;;;;;;;;5054435;28;20029;-70
2022/03/20 12:42:24;;;;;;;22.83;12.63;;;;;;;;;;5056161;28;20397;-70
2022/03/20 12:44:50;;;;;;;21.40;10.40;;;;;;;;;;5061021;28;20493;-70
2022/03/20 12:47:19;;;;;;;23.67;12.50;;;;;;;;;;5057407;28;20050;-70
2022/03/20 12:49:52;;;;;;;21.93;12.03;;;;;;;;;;5057447;28;20033;-70
2022/03/20 12:52:18;;;;;;;24.17;13.43;;;;;;;;;;5058040;28;20029;-70
2022/03/20 12:54:56;;;;;;;27.77;15.00;;;;;;;;;;5057369;28;20035;-70
2022/03/20 12:57:40;;;;;;;28.73;12.63;;;;;;;;;;5049234;28;20055;-70
2022/03/20 13:00:07;;;;;;;22.67;13.97;;;;;;;;;;5049643;28;20056;-70
2022/03/20 13:02:33;;;;;;;16.27;9.07;;;;;;;;;;5058911;28;20083;-70
2022/03/20 13:05:08;;;;;;;29.13;14.20;;;;;;;;;;5060543;28;20601;-70
2022/03/20 13:07:35;;;;;;;22.03;10.50;;;;;;;;;;5060375;28;20036;-70
2022/03/20 13:10:00;;;;;;;20.00;12.43;;;;;;;;;;5060457;28;20026;-70
2022/03/20 13:12:26;;;;;;;21.40;11.13;;;;;;;;;;5061015;28;20043;-70
2022/03/20 13:14:55;;;;;;;17.73;9.03;;;;;;;;;;5061157;28;20261;-70
2022/03/20 13:17:24;;;;;;;20.23;11.10;;;;;;;;;;5077599;28;20488;-70
2022/03/20 13:19:49;;;;;;;18.83;9.90;;;;;;;;;;5061560;28;20079;-70
2022/03/20 13:22:16;;;;;;;22.43;10.50;;;;;;;;;;5061273;28;20040;-70
2022/03/20 13:24:43;;;;;;;19.37;11.23;;;;;;;;;;5061357;28;20031;-70
2022/03/20 13:27:09;;;;;;;17.30;9.17;;;;;;;;;;5063298;28;20021;-70
2022/03/20 13:29:35;;;;;;;23.57;14.07;;;;;;;;;;5057517;28;20086;-70
2022/03/20 13:32:01;;;;;;;24.17;14.30;;;;;;;;;;5062702;28;20728;-70
2022/03/20 13:34:27;;;;;;;19.77;11.20;;;;;;;;;;5062684;28;20055;-70
2022/03/20 13:36:52;;;;;;;21.27;12.53;;;;;;;;;;5062574;28;20013;-70
2022/03/20 13:39:19;;;;;;;21.20;12.27;;;;;;;;;;5062566;28;20419;-70
2022/03/20 13:41:45;;;;;;;24.90;14.60;;;;;;;;;;5062681;28;20181;-70
2022/03/20 13:44:15;;;;;;;20.37;11.40;;;;;;;;;;5062873;28;20036;-70
2022/03/20 13:46:41;;;;;;;17.87;9.50;;;;;;;;;;5065847;28;20095;-70
2022/03/20 13:49:15;;;;;;;19.53;11.03;;;;;;;;;;5061688;28;20095;-70
2022/03/20 13:51:44;;;;;;;20.33;11.37;;;;;;;;;;5056961;28;20028;-70
2022/03/20 13:54:10;;;;;;;20.03;10.97;;;;;;;;;;5062161;28;20035;-70
2022/03/20 13:56:35;;;;;;;19.77;10.77;;;;;;;;;;5062668;28;20100;-70
2022/03/20 13:59:03;;;;;;;17.03;8.87;;;;;;;;;;5062672;28;20684;-70
2022/03/20 14:01:29;;;;;;;16.90;8.17;;;;;;;;;;5062224;28;20401;-70
2022/03/20 14:03:54;;;;;;;22.33;11.00;;;;;;;;;;5070097;28;20040;-70
2022/03/20 14:06:20;;;;;;;24.77;11.17;;;;;;;;;;5063220;28;20085;-70
2022/03/20 14:08:51;;;;;;;16.80;10.00;;;;;;;;;;5063039;28;20485;-70
2022/03/20 14:11:31;;;;;;;20.45;11.10;;;;;;;;;;5064091;28;20029;-70
2022/03/20 14:13:57;;;;;;;20.80;10.33;;;;;;;;;;5057635;28;20086;-70
2022/03/20 14:16:22;;;;;;;25.97;14.37;;;;;;;;;;5057557;28;20020;-70
2022/03/20 14:18:47;;;;;;;17.63;10.63;;;;;;;;;;5060493;28;20034;-70
2022/03/20 14:21:17;;;;;;;17.40;9.73;;;;;;;;;;5062555;28;20092;-71
2022/03/20 14:24:06;;;;;;;20.07;10.10;;;;;;;;;;5062481;28;20199;-70
2022/03/20 14:26:33;;;;;;;18.87;10.70;;;;;;;;;;5064643;28;20050;-70
2022/03/20 14:39:26;;;;;;;13.27;7.43;;;;;;;;;;5062212;28;20051;-70
2022/03/20 14:40:15;;;;;;;16.17;8.57;;;;;;;;;;5063010;28;20036;-70
2022/03/20 14:42:41;;;;;;;17.03;8.33;;;;;;;;;;5061633;28;20032;-70
2022/03/20 14:45:07;;;;;;;29.73;11.47;;;;;;;;;;5063638;28;20028;-70
2022/03/20 14:47:36;;;;;;;22.00;10.93;;;;;;;;;;5082557;28;20054;-71
2022/03/20 14:50:04;;;;;;;18.30;10.23;;;;;;;;;;5072243;28;20541;-71
2022/03/20 14:52:29;;;;;;;18.10;10.13;;;;;;;;;;5061772;28;20056;-71
2022/03/20 14:55:01;;;;;;;18.40;9.67;;;;;;;;;;5061214;28;20122;-71
2022/03/20 14:57:26;;;;;;;18.90;11.43;;;;;;;;;;5062111;28;20467;-70
2022/03/20 14:59:52;;;;;;;20.43;12.00;;;;;;;;;;5064802;28;20024;-70